createdAt,value
2019-04-07T00:00:31.272Z,33.20
2019-04-07T00:05:36.362Z,33.83
2019-04-07T00:10:41.383Z,32.10
2019-04-07T00:15:46.318Z,32.47
2019-04-07T00:20:50.963Z,34.20
2019-04-07T00:25:55.577Z,31.03
2019-04-07T00:31:00.719Z,33.23
2019-04-07T00:36:05.428Z,33.53
2019-04-07T00:41:09.974Z,33.93
2019-04-07T00:46:14.628Z,33.70
2019-04-07T00:51:20.103Z,35.67
2019-04-07T00:56:25.868Z,31.90
2019-04-07T01:01:30.731Z,30.63
2019-04-07T01:06:35.796Z,32.50
2019-04-07T01:11:40.494Z,34.00
2019-04-07T01:16:45.670Z,32.87
2019-04-07T01:21:51.104Z,30.60
2019-04-07T01:26:55.954Z,34.80
2019-04-07T01:32:00.617Z,32.53
2019-04-07T01:37:05.608Z,27.13
2019-04-07T01:42:22.974Z,29.50
2019-04-07T01:47:38.353Z,31.73
2019-04-07T01:52:54.837Z,35.07
2019-04-07T01:58:33.971Z,32.10
2019-04-07T02:04:06.792Z,34.33
2019-04-07T02:09:17.107Z,32.23
2019-04-07T02:14:44.455Z,32.70
2019-04-07T02:19:58.827Z,34.40
2019-04-07T02:25:23.263Z,37.70
2019-04-07T02:30:50.346Z,36.67
2019-04-07T02:36:21.922Z,38.10
2019-04-07T02:41:32.435Z,37.53
2019-04-07T02:46:50.138Z,37.90
2019-04-07T02:52:05.694Z,32.60
2019-04-07T02:57:36.009Z,39.77
2019-04-07T03:02:50.357Z,34.17
2019-04-07T03:08:09.193Z,38.83
2019-04-07T03:13:55.943Z,34.73
2019-04-07T03:19:42.701Z,39.27
2019-04-07T03:25:21.104Z,35.17
2019-04-07T03:30:54.680Z,36.70
2019-04-07T03:36:20.779Z,38.93
2019-04-07T03:41:42.660Z,34.90
2019-04-07T03:47:18.818Z,38.47
2019-04-07T03:53:01.473Z,36.40
2019-04-07T03:58:34.037Z,31.87
2019-04-07T04:03:46.040Z,30.40
2019-04-07T04:08:56.691Z,35.27
2019-04-07T04:14:23.907Z,31.90
2019-04-07T04:19:28.830Z,27.10
2019-04-07T04:24:33.690Z,26.20
2019-04-07T04:29:39.329Z,23.50
2019-04-07T04:34:43.999Z,23.33
2019-04-07T04:39:49.073Z,21.47
2019-04-07T04:44:55.653Z,22.37
2019-04-07T04:50:00.361Z,21.83
2019-04-07T04:55:05.276Z,20.80
2019-04-07T05:00:10.422Z,21.60
2019-04-07T05:05:15.311Z,28.00
2019-04-07T05:10:19.844Z,25.53
2019-04-07T05:15:24.528Z,25.70
2019-04-07T05:20:29.426Z,29.50
2019-04-07T05:25:33.923Z,22.23
2019-04-07T05:30:39.171Z,20.23
2019-04-07T05:35:44.221Z,21.10
2019-04-07T05:40:48.745Z,19.60
2019-04-07T05:45:53.435Z,19.27
2019-04-07T05:51:00.560Z,17.87
2019-04-07T05:56:06.024Z,19.63
2019-04-07T06:01:10.719Z,21.73
2019-04-07T06:06:15.824Z,23.97
2019-04-07T06:11:20.629Z,32.97
2019-04-07T06:16:25.528Z,28.00
2019-04-07T06:21:31.177Z,30.13
2019-04-07T06:26:36.423Z,26.50
2019-04-07T06:31:42.361Z,26.87
2019-04-07T06:36:51.535Z,34.67
2019-04-07T06:41:53.700Z,28.23
2019-04-07T06:47:15.624Z,28.07
2019-04-07T06:52:41.757Z,33.00
2019-04-07T06:58:00.343Z,29.23
2019-04-07T07:03:28.256Z,27.60
2019-04-07T07:08:54.902Z,29.63
2019-04-07T07:14:09.576Z,29.43
2019-04-07T07:19:44.774Z,26.37
2019-04-07T07:24:50.238Z,25.57
2019-04-07T07:29:55.519Z,23.30
2019-04-07T07:35:00.218Z,25.27
2019-04-07T07:40:08.471Z,24.53
2019-04-07T07:45:13.670Z,20.77
2019-04-07T07:50:19.167Z,25.30
2019-04-07T07:55:23.874Z,19.83
2019-04-07T08:00:28.746Z,17.30
2019-04-07T08:05:37.992Z,20.13
2019-04-07T08:10:42.936Z,23.33
2019-04-07T08:15:47.515Z,20.87
2019-04-07T08:20:52.224Z,25.20
2019-04-07T08:25:57.835Z,19.20
2019-04-07T08:31:02.811Z,23.63
2019-04-07T08:36:11.144Z,17.20
2019-04-07T08:41:15.879Z,22.17
2019-04-07T08:46:20.035Z,20.67
2019-04-07T08:51:24.945Z,18.17
2019-04-07T08:56:29.554Z,16.20
2019-04-07T09:01:34.864Z,15.10
2019-04-07T09:06:39.677Z,15.37
2019-04-07T09:11:44.399Z,14.03
2019-04-07T09:17:05.788Z,14.57
2019-04-07T09:22:30.358Z,13.50
2019-04-07T09:27:59.737Z,12.53
2019-04-07T09:33:31.748Z,12.30
2019-04-07T09:39:16.404Z,11.27
2019-04-07T09:45:13.953Z,8.53
2019-04-07T09:51:17.670Z,9.10
2019-04-07T09:57:03.411Z,8.67
2019-04-07T10:02:32.023Z,9.67
2019-04-07T10:07:54.374Z,9.33
2019-04-07T10:13:21.569Z,9.17
2019-04-07T10:18:45.963Z,9.27
2019-04-07T10:24:33.390Z,10.40
2019-04-07T10:29:55.643Z,9.83
2019-04-07T10:35:06.942Z,10.63
2019-04-07T16:18:52.695Z,12.23
2019-04-07T16:24:02.851Z,12.43
2019-04-07T16:29:11.538Z,12.33
2019-04-07T16:34:16.583Z,12.50
2019-04-07T16:39:21.564Z,11.30
2019-04-07T16:44:29.642Z,11.33
2019-04-07T16:49:38.345Z,12.23
2019-04-07T16:54:44.588Z,11.97
2019-04-07T16:59:51.970Z,12.00
2019-04-07T17:04:57.028Z,12.70
2019-04-07T17:10:03.510Z,11.97
2019-04-07T17:15:09.017Z,11.50
2019-04-07T17:20:14.634Z,12.07
2019-04-07T17:25:20.562Z,13.23
2019-04-07T17:30:28.074Z,11.90
2019-04-07T17:35:33.064Z,12.17
2019-04-07T17:40:45.237Z,12.97
2019-04-07T17:46:11.382Z,12.73
2019-04-07T17:51:25.655Z,11.83
2019-04-07T17:56:51.911Z,10.63
2019-04-07T18:02:07.146Z,11.83
2019-04-07T18:07:34.153Z,12.43
2019-04-07T18:12:50.323Z,11.70
2019-04-07T18:18:18.770Z,11.30
2019-04-07T18:24:07.245Z,12.20
2019-04-07T18:29:34.240Z,11.60
2019-04-07T18:35:01.247Z,12.43
2019-04-07T18:40:27.295Z,12.57
2019-04-07T18:45:46.529Z,13.03
2019-04-07T18:51:14.806Z,12.27
2019-04-07T18:56:37.991Z,13.07
2019-04-07T19:02:24.798Z,13.43
2019-04-07T19:08:07.250Z,12.87
2019-04-07T19:13:26.928Z,12.50
2019-04-07T19:25:33.408Z,11.17
2019-04-07T19:30:57.107Z,12.33
2019-04-07T19:36:45.946Z,12.60
2019-04-07T19:42:16.409Z,12.77
2019-04-07T19:47:37.198Z,14.07
2019-04-07T19:53:14.748Z,12.00
2019-04-07T19:58:36.111Z,13.50
2019-04-07T20:04:03.186Z,12.23
2019-04-07T20:09:19.253Z,15.03
2019-04-07T20:15:03.492Z,15.30
2019-04-07T20:20:14.971Z,14.60
2019-04-07T20:25:30.945Z,15.03
2019-04-07T20:30:45.568Z,13.57
2019-04-07T20:36:20.472Z,16.37
2019-04-07T20:41:43.161Z,15.07
2019-04-07T20:47:20.882Z,15.17
2019-04-07T20:52:50.475Z,16.07
2019-04-07T20:58:25.095Z,15.63
2019-04-07T21:03:55.624Z,17.03
2019-04-07T21:09:20.190Z,17.53
2019-04-07T21:14:45.335Z,15.90
2019-04-07T21:20:18.063Z,17.53
2019-04-07T21:25:56.937Z,16.30
2019-04-07T21:31:30.507Z,17.07
2019-04-07T21:36:47.304Z,15.37
2019-04-07T21:42:07.928Z,17.37
2019-04-07T21:47:30.999Z,14.93
2019-04-07T21:53:14.262Z,18.33
2019-04-07T21:58:42.324Z,18.43
2019-04-07T22:04:06.438Z,19.13
2019-04-07T22:09:19.443Z,18.40
2019-04-07T22:14:26.341Z,17.67
2019-04-07T22:19:31.909Z,16.70
2019-04-07T22:24:38.312Z,17.47
2019-04-07T22:29:44.894Z,17.50
2019-04-07T22:34:50.367Z,18.00
2019-04-07T22:39:57.221Z,18.63
2019-04-07T22:45:02.122Z,16.97
2019-04-07T22:50:08.003Z,17.30
2019-04-07T22:55:14.421Z,16.77
2019-04-07T23:00:24.182Z,17.13
2019-04-07T23:05:29.760Z,16.63
2019-04-07T23:10:34.723Z,15.10
2019-04-07T23:15:44.360Z,18.40
2019-04-07T23:20:46.828Z,15.87
2019-04-07T23:25:55.609Z,18.57
2019-04-07T23:31:02.178Z,16.60
2019-04-07T23:36:07.208Z,15.50
2019-04-07T23:41:14.490Z,16.97
2019-04-07T23:46:24.192Z,16.33
2019-04-07T23:51:26.748Z,18.53
2019-04-07T23:56:33.960Z,20.10
